Time,TemperatureF,DewpointF,PressureIn,WindDirection,WindDirectionDegrees,WindSpeedMPH,WindSpeedGustMPH,Humidity,HourlyPrecipIn,Conditions,Clouds,dailyrainin,SolarRadiationWatts/m^2,SoftwareType,DateUTC
2013-01-18 00:02:00,27.0,-5.0,-100.00,SW,221,4.0,5.0,24,0.00,,,0.00,0.000000,,2013-01-18 08:02:00,
2013-01-18 00:11:00,27.0,-5.0,-100.00,SW,221,4.0,5.0,24,0.00,,,0.00,0.000000,,2013-01-18 08:11:00,
2013-01-18 00:12:00,28.0,-7.0,-100.00,SSW,199,4.0,6.0,21,0.00,,,0.00,0.000000,,2013-01-18 08:12:00,
2013-01-18 00:33:00,28.0,-7.0,-100.00,SSW,199,4.0,6.0,21,0.00,,,0.00,0.000000,,2013-01-18 08:33:00,
2013-01-18 00:42:00,28.0,-7.0,-100.00,SSW,199,4.0,6.0,21,0.00,,,0.00,0.000000,,2013-01-18 08:42:00,
2013-01-18 00:53:00,28.0,-7.0,-100.00,SSW,199,4.0,6.0,21,0.00,,,0.00,0.000000,,2013-01-18 08:53:00,
2013-01-18 01:02:00,28.0,-7.0,-100.00,SSW,199,4.0,6.0,21,0.00,,,0.00,0.000000,,2013-01-18 09:02:00,
2013-01-18 01:33:00,28.0,-8.0,-100.00,SW,235,3.0,5.0,20,-99.99,,,-99.99,0.000000,,2013-01-18 09:33:00,
2013-01-18 01:42:00,28.0,-8.0,-100.00,SW,235,3.0,5.0,20,-99.99,,,-99.99,0.000000,,2013-01-18 09:42:00,
2013-01-18 01:52:00,28.0,-8.0,-100.00,SW,235,3.0,5.0,20,-99.99,,,-99.99,0.000000,,2013-01-18 09:52:00,
2013-01-18 02:02:00,28.0,-8.0,-100.00,SW,235,3.0,5.0,20,-99.99,,,-99.99,0.000000,,2013-01-18 10:02:00,
2013-01-18 02:11:00,28.0,-8.0,-100.00,SW,235,3.0,5.0,20,-99.99,,,-99.99,0.000000,,2013-01-18 10:11:00,
2013-01-18 02:12:00,28.0,-8.0,-100.00,WSW,249,3.0,4.0,20,0.00,,,0.00,0.000000,,2013-01-18 10:12:00,
2013-01-18 02:33:00,28.0,-8.0,-100.00,WSW,249,3.0,4.0,20,0.00,,,0.00,0.000000,,2013-01-18 10:33:00,
2013-01-18 02:43:00,28.0,-8.0,-100.00,WSW,249,3.0,4.0,20,0.00,,,0.00,0.000000,,2013-01-18 10:43:00,
2013-01-18 02:52:00,28.0,-8.0,-100.00,WSW,249,3.0,4.0,20,0.00,,,0.00,0.000000,,2013-01-18 10:52:00,
2013-01-18 03:02:00,28.0,-8.0,-100.00,WSW,249,3.0,4.0,20,0.00,,,0.00,0.000000,,2013-01-18 11:02:00,
2013-01-18 03:12:00,28.0,-7.0,-100.00,SW,224,4.0,5.0,21,0.00,,,-99.99,0.000000,,2013-01-18 11:12:00,
2013-01-18 03:33:00,28.0,-7.0,-100.00,SW,224,4.0,5.0,21,0.00,,,-99.99,0.000000,,2013-01-18 11:33:00,
2013-01-18 03:42:00,28.0,-7.0,-100.00,SW,224,4.0,5.0,21,0.00,,,-99.99,0.000000,,2013-01-18 11:42:00,
2013-01-18 03:53:00,28.0,-7.0,-100.00,SW,224,4.0,5.0,21,0.00,,,-99.99,0.000000,,2013-01-18 11:53:00,
2013-01-18 04:02:00,28.0,-7.0,-100.00,SW,224,4.0,5.0,21,0.00,,,-99.99,0.000000,,2013-01-18 12:02:00,
2013-01-18 04:12:00,27.0,-7.0,-100.00,SW,229,3.0,5.0,22,0.00,,,0.00,0.000000,,2013-01-18 12:12:00,
2013-01-18 04:33:00,27.0,-7.0,-100.00,SW,229,3.0,5.0,22,0.00,,,0.00,0.000000,,2013-01-18 12:33:00,
2013-01-18 04:43:00,27.0,-7.0,-100.00,SW,229,3.0,5.0,22,0.00,,,0.00,0.000000,,2013-01-18 12:43:00,
2013-01-18 04:53:00,27.0,-7.0,-100.00,SW,229,3.0,5.0,22,0.00,,,0.00,0.000000,,2013-01-18 12:53:00,
2013-01-18 05:02:00,27.0,-7.0,-100.00,SW,229,3.0,5.0,22,0.00,,,0.00,0.000000,,2013-01-18 13:02:00,
2013-01-18 05:12:00,27.0,-6.0,-100.00,SSW,213,4.0,6.0,23,-99.99,,,0.00,0.000000,,2013-01-18 13:12:00,
2013-01-18 05:33:00,27.0,-6.0,-100.00,SSW,213,4.0,6.0,23,-99.99,,,0.00,0.000000,,2013-01-18 13:33:00,
2013-01-18 05:43:00,27.0,-6.0,-100.00,SSW,213,4.0,6.0,23,-99.99,,,0.00,0.000000,,2013-01-18 13:43:00,
2013-01-18 05:53:00,27.0,-6.0,-100.00,SSW,213,4.0,6.0,23,-99.99,,,0.00,0.000000,,2013-01-18 13:53:00,
2013-01-18 06:03:00,27.0,-6.0,-100.00,SSW,213,4.0,6.0,23,-99.99,,,0.00,0.000000,,2013-01-18 14:03:00,
2013-01-18 06:12:00,26.0,-6.0,-100.00,SW,224,4.0,5.0,24,0.00,,,0.00,0.000000,,2013-01-18 14:12:00,
2013-01-18 06:43:00,26.0,-6.0,-100.00,SW,224,4.0,5.0,24,0.00,,,0.00,0.000000,,2013-01-18 14:43:00,
2013-01-18 06:53:00,26.0,-6.0,-100.00,SW,224,4.0,5.0,24,0.00,,,0.00,0.000000,,2013-01-18 14:53:00,
2013-01-18 07:02:00,26.0,-6.0,-100.00,SW,224,4.0,5.0,24,0.00,,,0.00,0.000000,,2013-01-18 15:02:00,
2013-01-18 07:12:00,28.0,-4.0,-100.00,SW,217,3.0,5.0,24,0.00,,,0.00,12.000000,,2013-01-18 15:12:00,
2013-01-18 07:34:00,28.0,-4.0,-100.00,SW,217,3.0,5.0,24,0.00,,,0.00,12.000000,,2013-01-18 15:34:00,
2013-01-18 07:43:00,28.0,-4.0,-100.00,SW,217,3.0,5.0,24,0.00,,,0.00,12.000000,,2013-01-18 15:43:00,
2013-01-18 07:53:00,28.0,-4.0,-100.00,SW,217,3.0,5.0,24,0.00,,,0.00,12.000000,,2013-01-18 15:53:00,
2013-01-18 08:02:00,28.0,-4.0,-100.00,SW,217,3.0,5.0,24,0.00,,,0.00,12.000000,,2013-01-18 16:02:00,
2013-01-18 08:33:00,34.0,-3.0,-100.00,SW,216,3.0,4.0,20,-99.99,,,0.00,176.000000,,2013-01-18 16:33:00,
2013-01-18 08:43:00,34.0,-3.0,-100.00,SW,216,3.0,4.0,20,-99.99,,,0.00,176.000000,,2013-01-18 16:43:00,
2013-01-18 08:53:00,34.0,-3.0,-100.00,SW,216,3.0,4.0,20,-99.99,,,0.00,176.000000,,2013-01-18 16:53:00,
2013-01-18 09:02:00,34.0,-3.0,-100.00,SW,216,3.0,4.0,20,-99.99,,,0.00,176.000000,,2013-01-18 17:02:00,
2013-01-18 09:34:00,38.0,1.0,-100.00,SSW,203,2.0,4.0,20,-99.99,,,0.00,347.000000,,2013-01-18 17:34:00,
2013-01-18 09:43:00,38.0,1.0,-100.00,SSW,203,2.0,4.0,20,-99.99,,,0.00,347.000000,,2013-01-18 17:43:00,
2013-01-18 09:53:00,38.0,1.0,-100.00,SSW,203,2.0,4.0,20,-99.99,,,0.00,347.000000,,2013-01-18 17:53:00,
2013-01-18 10:03:00,38.0,1.0,-100.00,SSW,203,2.0,4.0,20,-99.99,,,0.00,347.000000,,2013-01-18 18:03:00,
2013-01-18 10:33:00,40.0,2.0,-100.00,SSE,166,4.0,5.0,20,-99.99,,,0.00,473.000000,,2013-01-18 18:33:00,
2013-01-18 10:43:00,40.0,2.0,-100.00,SSE,166,4.0,5.0,20,-99.99,,,0.00,473.000000,,2013-01-18 18:43:00,
2013-01-18 10:53:00,40.0,2.0,-100.00,SSE,166,4.0,5.0,20,-99.99,,,0.00,473.000000,,2013-01-18 18:53:00,
2013-01-18 11:02:00,40.0,2.0,-100.00,SSE,166,4.0,5.0,20,-99.99,,,0.00,473.000000,,2013-01-18 19:02:00,
2013-01-18 11:33:00,42.0,0.0,-100.00,SE,138,2.0,6.0,17,-99.99,,,0.00,543.000000,,2013-01-18 19:33:00,
2013-01-18 11:43:00,42.0,0.0,-100.00,SE,138,2.0,6.0,17,-99.99,,,0.00,543.000000,,2013-01-18 19:43:00,
2013-01-18 11:53:00,42.0,0.0,-100.00,SE,138,2.0,6.0,17,-99.99,,,0.00,543.000000,,2013-01-18 19:53:00,
2013-01-18 12:03:00,42.0,0.0,-100.00,SE,138,2.0,6.0,17,-99.99,,,0.00,543.000000,,2013-01-18 20:03:00,
2013-01-18 12:33:00,43.0,2.0,-100.00,SSE,149,0.0,0.0,18,0.00,,,0.00,551.000000,,2013-01-18 20:33:00,
2013-01-18 12:43:00,43.0,2.0,-100.00,SSE,149,0.0,0.0,18,0.00,,,0.00,551.000000,,2013-01-18 20:43:00,
2013-01-18 12:53:00,43.0,2.0,-100.00,SSE,149,0.0,0.0,18,0.00,,,0.00,551.000000,,2013-01-18 20:53:00,
2013-01-18 13:02:00,43.0,2.0,-100.00,SSE,149,0.0,0.0,18,0.00,,,0.00,551.000000,,2013-01-18 21:02:00,
2013-01-18 13:43:00,43.0,2.0,-100.00,South,171,3.0,5.0,18,-99.99,,,0.00,498.000000,,2013-01-18 21:43:00,
2013-01-18 13:53:00,43.0,2.0,-100.00,South,171,3.0,5.0,18,-99.99,,,0.00,498.000000,,2013-01-18 21:53:00,
2013-01-18 14:02:00,43.0,2.0,-100.00,South,171,3.0,5.0,18,-99.99,,,0.00,498.000000,,2013-01-18 22:02:00,
2013-01-18 14:12:00,40.0,1.0,-100.00,South,190,3.0,4.0,19,-99.99,,,0.00,390.000000,,2013-01-18 22:12:00,
2013-01-18 14:43:00,40.0,1.0,-100.00,South,190,3.0,4.0,19,-99.99,,,0.00,390.000000,,2013-01-18 22:43:00,
2013-01-18 14:53:00,40.0,1.0,-100.00,South,190,3.0,4.0,19,-99.99,,,0.00,390.000000,,2013-01-18 22:53:00,
2013-01-18 15:02:00,40.0,1.0,-100.00,South,190,3.0,4.0,19,-99.99,,,0.00,390.000000,,2013-01-18 23:02:00,
2013-01-18 15:33:00,37.0,-4.0,-100.00,SW,219,3.0,4.0,17,0.00,,,0.00,243.000000,,2013-01-18 23:33:00,
2013-01-18 15:43:00,37.0,-4.0,-100.00,SW,219,3.0,4.0,17,0.00,,,0.00,243.000000,,2013-01-18 23:43:00,
2013-01-18 15:53:00,37.0,-4.0,-100.00,SW,219,3.0,4.0,17,0.00,,,0.00,243.000000,,2013-01-18 23:53:00,
2013-01-18 16:02:00,37.0,-4.0,-100.00,SW,219,3.0,4.0,17,0.00,,,0.00,243.000000,,2013-01-19 00:02:00,
2013-01-18 16:12:00,32.0,-9.0,-100.00,WSW,253,2.0,4.0,16,0.00,,,0.00,62.000000,,2013-01-19 00:12:00,
2013-01-18 16:33:00,32.0,-9.0,-100.00,WSW,253,2.0,4.0,16,0.00,,,0.00,62.000000,,2013-01-19 00:33:00,
2013-01-18 17:43:00,29.0,-9.0,-100.00,WNW,289,4.0,6.0,18,0.00,,,0.00,6.000000,,2013-01-19 01:43:00,
2013-01-18 17:52:00,29.0,-9.0,-100.00,WNW,289,4.0,6.0,18,0.00,,,0.00,6.000000,,2013-01-19 01:52:00,
2013-01-18 18:02:00,29.0,-9.0,-100.00,WNW,289,4.0,6.0,18,0.00,,,0.00,6.000000,,2013-01-19 02:02:00,
2013-01-18 18:33:00,28.0,-9.0,-100.00,West,276,4.0,5.0,19,0.00,,,0.00,0.000000,,2013-01-19 02:33:00,
2013-01-18 19:12:00,25.0,-5.0,-100.00,NW,308,6.0,7.0,26,0.00,,,0.00,0.000000,,2013-01-19 03:12:00,
2013-01-18 19:33:00,25.0,-5.0,-100.00,NW,308,6.0,7.0,26,0.00,,,0.00,0.000000,,2013-01-19 03:33:00,
2013-01-18 19:44:00,25.0,-5.0,-100.00,NW,308,6.0,7.0,26,0.00,,,0.00,0.000000,,2013-01-19 03:44:00,
2013-01-18 19:52:00,25.0,-5.0,-100.00,NW,308,6.0,7.0,26,0.00,,,0.00,0.000000,,2013-01-19 03:52:00,
2013-01-18 20:02:00,25.0,-5.0,-100.00,NW,308,6.0,7.0,26,0.00,,,0.00,0.000000,,2013-01-19 04:02:00,
2013-01-18 20:12:00,30.0,-7.0,-100.00,WNW,290,2.0,6.0,19,0.00,,,0.00,0.000000,,2013-01-19 04:12:00,
2013-01-18 20:33:00,30.0,-7.0,-100.00,WNW,290,2.0,6.0,19,0.00,,,0.00,0.000000,,2013-01-19 04:33:00,
2013-01-18 20:43:00,30.0,-7.0,-100.00,WNW,290,2.0,6.0,19,0.00,,,0.00,0.000000,,2013-01-19 04:43:00,
2013-01-18 20:53:00,30.0,-7.0,-100.00,WNW,290,2.0,6.0,19,0.00,,,0.00,0.000000,,2013-01-19 04:53:00,
2013-01-18 21:03:00,30.0,-7.0,-100.00,WNW,290,2.0,6.0,19,0.00,,,0.00,0.000000,,2013-01-19 05:03:00,
2013-01-18 21:33:00,28.0,-11.0,-100.00,NW,312,1.0,6.0,17,0.00,,,0.00,0.000000,,2013-01-19 05:33:00,
2013-01-18 21:43:00,28.0,-11.0,-100.00,NW,312,1.0,6.0,17,0.00,,,0.00,0.000000,,2013-01-19 05:43:00,
2013-01-18 21:53:00,28.0,-11.0,-100.00,NW,312,1.0,6.0,17,0.00,,,0.00,0.000000,,2013-01-19 05:53:00,
2013-01-18 22:02:00,28.0,-11.0,-100.00,NW,312,1.0,6.0,17,0.00,,,0.00,0.000000,,2013-01-19 06:02:00,
2013-01-18 22:11:00,28.0,-11.0,-100.00,NW,312,1.0,6.0,17,0.00,,,0.00,0.000000,,2013-01-19 06:11:00,
2013-01-18 22:12:00,29.0,-9.0,-100.00,WNW,296,2.0,5.0,18,0.00,,,0.00,0.000000,,2013-01-19 06:12:00,
2013-01-18 22:43:00,29.0,-9.0,-100.00,WNW,296,2.0,5.0,18,0.00,,,0.00,0.000000,,2013-01-19 06:43:00,
2013-01-18 22:53:00,29.0,-9.0,-100.00,WNW,296,2.0,5.0,18,0.00,,,0.00,0.000000,,2013-01-19 06:53:00,
2013-01-18 23:02:00,29.0,-9.0,-100.00,WNW,296,2.0,5.0,18,0.00,,,0.00,0.000000,,2013-01-19 07:02:00,
2013-01-18 23:12:00,27.0,-7.0,-100.00,SSW,195,3.0,5.0,22,0.00,,,0.00,0.000000,,2013-01-19 07:12:00,
2013-01-18 23:33:00,27.0,-7.0,-100.00,SSW,195,3.0,5.0,22,0.00,,,0.00,0.000000,,2013-01-19 07:33:00,
2013-01-18 23:43:00,27.0,-7.0,-100.00,SSW,195,3.0,5.0,22,0.00,,,0.00,0.000000,,2013-01-19 07:43:00,
2013-01-18 23:52:00,27.0,-7.0,-100.00,SSW,195,3.0,5.0,22,0.00,,,0.00,0.000000,,2013-01-19 07:52:00,